Date,TemperatureHighF,TemperatureAvgF,TemperatureLowF,DewpointHighF,DewpointAvgF,DewpointLowF,HumidityHigh,HumidityAvg,HumidityLow,PressureMaxIn,PressureMinIn,WindSpeedMaxMPH,WindSpeedAvgMPH,GustSpeedMaxMPH,PrecipitationSumIn
2013-1-1,32,23,5,27,14,0,84,67,55,29.98,29.73,15,3,21,0.00
2013-1-2,21,10,-1,18,4,-7,92,78,65,30.24,29.95,9,1,14,0.00
2013-1-3,16,4,-10,12,-3,-14,86,74,50,30.26,29.98,5,0,7,0.00
2013-1-4,33,29,15,23,21,12,89,73,62,29.98,29.84,20,4,23,0.00
2013-1-5,34,29,20,25,20,15,82,70,52,30.24,29.87,14,2,21,0.04
2013-1-6,36,31,20,30,25,16,92,79,65,30.19,29.91,10,1,15,0.03
2013-1-7,34,25,13,30,19,11,92,79,67,30.39,29.97,7,1,12,0.00
2013-1-8,39,26,14,24,19,10,91,77,51,30.39,30.27,6,1,9,0.07
2013-1-9,45,33,19,33,24,17,91,73,51,30.38,29.97,20,2,22,0.21
2013-1-10,40,35,26,32,24,22,85,66,51,30.56,30.09,12,2,28,0.02
2013-1-11,42,33,23,38,26,19,89,77,42,30.55,30.11,19,2,23,0.08
2013-1-12,48,41,36,42,38,34,100,89,81,30.16,30.06,12,1,18,0.00
2013-1-13,59,44,35,51,41,34,96,90,74,30.13,29.89,13,1,19,0.00
2013-1-14,56,42,31,52,36,23,96,79,56,30.29,29.79,12,2,18,0.06
2013-1-15,33,30,26,25,22,21,88,75,63,30.35,30.22,3,0,7,0.00
2013-1-16,32,29,26,30,26,20,100,89,71,30.22,29.82,6,0,11,0.00
2013-1-17,35,28,17,28,19,-2,93,70,42,30.15,29.83,9,2,18,0.01
2013-1-18,22,15,6,7,1,-5,71,54,41,30.41,30.11,11,2,15,0.00
2013-1-19,45,36,22,26,18,7,62,48,42,30.26,29.77,16,3,23,0.14
2013-1-20,46,36,19,32,20,5,86,53,40,29.99,29.50,28,6,35,0.02
2013-1-21,23,19,16,15,8,2,84,62,51,30.07,29.78,11,2,16,0.00
2013-1-22,20,12,6,16,4,-6,88,69,51,30.10,29.77,13,2,19,0.00
2013-1-23,10,4,-2,-3,-9,-12,67,54,39,30.18,30.09,13,3,21,0.00
2013-1-24,15,4,-8,-2,-8,-13,80,57,39,30.37,30.17,12,2,18,0.00
2013-1-25,14,6,-2,6,-4,-9,83,61,43,30.42,30.10,6,0,9,0.00
2013-1-26,17,9,2,5,1,-1,85,70,49,30.33,30.07,6,1,13,0.00
2013-1-27,23,12,5,7,2,0,81,65,40,30.52,30.32,10,1,13,0.00
2013-1-28,28,20,9,25,15,3,92,83,72,30.49,29.98,16,2,20,0.00
2013-1-29,43,32,24,39,29,22,93,91,82,30.15,29.99,14,1,24,0.27
2013-1-30,63,55,42,55,50,39,92,83,73,30.00,29.28,20,5,33,0.19
2013-1-31,57,38,24,54,30,12,95,71,53,29.60,28.85,25,8,43,1.10
2013-2-1,24,21,15,14,9,4,75,61,49,30.12,29.60,18,4,25,0.00
2013-2-2,24,17,8,15,7,2,85,67,51,30.23,30.03,8,1,13,0.00
2013-2-3,27,18,10,14,10,6,92,72,49,30.05,29.76,5,0,13,0.00
2013-2-4,23,19,14,16,9,3,89,66,48,29.94,29.75,16,3,26,0.00
2013-2-5,26,18,7,14,9,4,87,68,49,30.03,29.89,6,0,9,0.00
2013-2-6,31,25,16,22,13,0,87,63,32,30.35,29.89,14,3,17,0.00
2013-2-7,25,18,9,8,4,0,70,53,41,30.55,30.34,7,1,9,0.00
2013-2-8,28,25,20,20,15,6,88,68,45,30.39,29.80,22,6,36,0.00
2013-2-9,20,14,8,19,5,-4,98,69,46,30.36,29.82,14,2,24,0.00
2013-2-10,29,13,-2,12,2,-6,83,63,39,30.52,30.29,5,0,7,0.08
2013-2-11,48,37,14,41,27,1,93,72,22,30.30,29.62,23,4,34,0.43
2013-2-12,35,33,30,29,27,24,81,77,73,29.90,29.65,18,5,24,0.00
2013-2-13,36,30,27,25,23,19,84,74,55,29.88,29.73,7,1,13,0.00
2013-2-14,38,29,20,25,21,17,92,73,53,29.97,29.72,5,1,9,0.00
2013-2-15,44,38,29,30,26,22,90,65,50,29.98,29.87,10,2,20,0.01
2013-2-16,31,27,21,27,19,5,92,71,49,30.00,29.84,6,1,11,0.01
2013-2-17,21,16,9,7,3,-1,71,58,46,29.90,29.64,19,3,19,0.00
2013-2-18,27,15,6,10,2,-2,73,56,34,30.20,29.90,12,2,17,0.00
2013-2-19,45,30,14,33,21,6,94,72,44,30.17,29.59,16,2,30,0.34
2013-2-20,32,25,22,30,18,13,94,75,57,29.84,29.61,18,5,27,0.01
2013-2-21,24,20,16,15,11,7,79,67,56,30.39,29.84,18,3,20,0.00
2013-2-22,37,28,18,25,20,14,94,73,58,30.43,30.23,8,1,15,0.02
2013-2-23,37,35,32,31,28,22,86,76,61,30.24,29.87,12,3,18,0.02
2013-2-24,35,32,30,33,30,28,94,93,80,29.95,29.76,5,0,9,0.08
2013-2-25,36,31,28,31,28,25,94,89,79,30.24,29.95,4,0,7,0.10
2013-2-26,42,34,25,31,26,23,92,76,59,30.32,30.03,12,2,25,0.00
2013-2-27,39,36,32,35,30,24,92,80,65,30.04,29.57,28,5,33,0.23
2013-2-28,41,36,31,35,31,27,96,83,72,29.60,29.54,6,0,11,0.01
2013-3-1,37,33,30,33,28,24,96,81,65,29.76,29.58,8,1,14,0.00
2013-3-2,33,29,25,28,25,21,89,85,77,29.75,29.70,9,1,12,0.03
2013-3-3,28,25,21,24,21,18,89,85,80,29.75,29.68,7,1,12,0.00
2013-3-4,32,26,22,23,19,17,84,75,62,29.90,29.71,9,2,20,0.00
2013-3-5,40,29,25,28,22,18,88,75,60,30.09,29.89,7,1,11,0.06
2013-3-6,36,33,27,31,27,23,92,77,66,30.13,30.02,12,2,24,0.04
2013-3-7,36,31,27,29,25,21,92,80,65,30.15,30.09,7,1,16,0.01
2013-3-8,38,29,25,31,25,21,93,85,69,30.29,30.08,4,0,10,0.02
2013-3-9,50,32,17,28,23,15,92,72,40,30.35,30.26,7,0,10,0.36
2013-3-10,56,41,23,28,23,19,91,55,27,30.36,30.17,14,1,19,0.01
2013-3-11,53,46,35,36,28,22,76,52,32,30.20,29.97,25,3,32,0.00
2013-3-12,53,48,36,49,44,35,94,84,67,30.00,29.64,28,6,33,1.00
2013-3-13,43,36,32,35,26,18,94,70,43,29.83,29.75,12,2,18,0.01
2013-3-14,32,24,20,23,13,6,77,64,51,29.90,29.79,15,4,22,0.00
2013-3-15,32,25,16,28,15,6,90,67,43,29.93,29.63,15,2,21,0.00
2013-3-16,31,26,19,22,14,11,81,62,45,29.90,29.74,9,1,16,0.01
2013-3-17,32,24,16,16,9,3,80,55,33,30.33,29.90,14,2,19,0.00
2013-3-18,38,25,9,23,7,2,87,51,25,30.46,30.09,7,1,17,0.00
2013-3-19,35,30,26,28,25,22,92,81,68,30.09,29.68,21,4,35,0.06
2013-3-20,33,26,23,22,19,17,82,73,58,29.80,29.74,13,3,20,0.04
2013-3-21,34,26,14,22,16,10,89,67,43,29.80,29.64,10,1,15,0.04
2013-3-22,32,24,14,26,18,11,90,78,66,29.80,29.68,14,2,17,0.05
2013-3-23,37,31,26,22,20,18,80,64,48,29.85,29.72,17,3,22,0.00
2013-3-24,39,33,29,24,22,21,74,65,52,29.89,29.77,11,1,13,0.00
2013-3-25,41,35,28,27,24,21,76,64,51,29.79,29.53,11,1,14,0.00
2013-3-26,45,34,28,29,25,21,91,69,42,29.84,29.59,9,1,14,0.02
2013-3-27,48,35,24,35,26,20,88,71,45,29.92,29.81,10,1,18,0.02
2013-3-28,46,38,32,35,31,28,92,78,60,30.08,29.91,6,1,11,0.02
2013-3-29,48,38,31,35,32,29,93,80,56,30.11,30.02,9,0,11,0.00
2013-3-30,54,40,28,32,25,18,93,61,27,30.13,30.02,11,1,15,0.01
2013-3-31,55,40,26,37,27,21,90,63,31,30.11,29.69,15,2,27,0.24
2013-4-1,50,38,28,42,30,12,100,77,39,29.83,29.52,19,3,25,0.25
2013-4-2,32,27,24,23,15,12,83,61,49,29.97,29.82,19,5,26,0.00
2013-4-3,40,30,24,18,14,9,71,52,28,30.24,29.96,19,5,23,0.00
2013-4-4,52,37,22,24,19,15,83,51,30,30.34,29.95,13,2,21,0.00
2013-4-5,54,41,30,27,23,18,72,49,33,29.95,29.70,13,2,19,0.00
2013-4-6,44,32,24,18,11,7,58,43,23,30.30,29.95,11,2,19,0.00
2013-4-7,58,45,28,39,24,13,61,45,27,30.27,29.84,20,4,33,0.00
2013-4-8,63,50,42,40,35,32,76,58,31,30.10,29.91,11,2,16,0.00
2013-4-9,64,56,48,49,44,36,82,65,43,30.01,29.78,14,4,28,0.09
2013-4-10,55,48,45,49,46,40,95,90,76,30.02,29.82,5,0,14,0.93
2013-4-11,45,37,32,44,34,28,95,87,65,30.14,29.86,7,0,10,0.12
2013-4-12,38,35,33,32,30,27,92,81,72,30.12,29.76,24,4,41,0.45
2013-4-13,50,40,32,39,34,30,94,82,61,29.94,29.80,12,1,15,0.15
2013-4-14,44,38,30,34,30,24,95,73,49,30.24,29.92,12,2,18,0.06
2013-4-15,63,45,26,38,31,24,91,61,37,30.37,30.20,10,1,17,0.00
2013-4-16,62,55,48,53,43,31,90,66,50,30.27,29.98,22,4,34,0.21
2013-4-17,62,50,40,48,36,31,89,62,37,30.33,30.07,11,2,16,0.00
2013-4-18,63,52,39,50,34,27,77,51,37,30.33,29.99,25,5,34,0.00
2013-4-19,72,63,46,60,55,43,93,75,63,30.00,29.48,23,6,35,0.93
2013-4-20,48,42,32,43,32,19,94,70,45,30.29,29.69,17,4,23,0.32
2013-4-21,50,37,27,22,18,14,67,48,27,30.66,30.29,10,2,15,0.00
2013-4-22,57,43,30,28,21,16,64,43,26,30.71,30.51,13,2,19,0.00
2013-4-23,50,42,32,38,31,24,81,66,57,30.53,30.13,12,2,21,0.00
2013-4-24,76,56,34,50,41,32,94,62,31,30.13,29.67,13,2,23,0.00
2013-4-25,64,46,37,52,32,27,88,61,33,30.27,29.67,13,3,23,0.12
2013-4-26,59,44,31,36,30,26,84,60,33,30.43,30.26,10,1,13,0.00
2013-4-27,64,47,30,36,30,25,89,56,24,30.44,30.27,10,1,15,0.00
2013-4-28,74,56,36,41,35,29,80,50,25,30.31,30.09,15,1,16,0.00
2013-4-29,63,57,54,44,37,32,56,47,42,30.20,30.13,16,3,19,0.00
2013-4-30,74,59,46,45,41,31,83,53,35,30.28,30.19,8,1,13,0.01
2013-5-1,80,61,41,38,34,27,74,42,15,30.41,30.26,9,1,13,0.00
2013-5-2,83,62,43,44,40,31,80,47,24,30.44,30.25,22,2,30,0.00
2013-5-3,72,60,47,43,35,26,60,42,25,30.45,30.29,12,2,22,0.00
2013-5-4,78,61,41,46,38,30,90,49,20,30.33,30.16,13,1,15,0.00
2013-5-5,79,59,39,40,33,28,76,42,17,30.27,30.11,9,1,14,0.00
2013-5-6,79,59,38,44,39,34,92,53,23,30.22,30.05,7,1,10,0.00
2013-5-7,82,64,45,53,48,39,94,60,34,30.15,30.00,6,0,10,0.00
2013-5-8,74,61,50,58,54,47,94,78,51,30.12,29.97,15,1,17,0.21
2013-5-9,70,58,50,58,53,49,96,84,53,29.97,29.84,7,0,11,0.33
2013-5-10,77,62,47,60,52,46,97,73,42,29.96,29.78,13,0,16,0.00
2013-5-11,69,62,54,61,57,53,94,82,56,29.78,29.61,10,1,23,0.21
2013-5-12,59,52,42,53,41,27,95,71,37,29.84,29.62,11,1,19,0.00
2013-5-13,48,41,38,34,30,28,85,65,49,30.07,29.84,13,2,18,0.00
2013-5-14,56,42,29,34,31,26,92,66,38,30.11,30.00,8,0,12,0.00
2013-5-15,61,47,29,51,38,27,93,73,36,30.06,29.59,17,2,26,0.07
2013-5-16,76,61,42,50,42,34,94,55,26,29.83,29.64,16,2,30,0.00
2013-5-17,69,54,41,42,40,37,90,63,34,30.21,29.84,12,1,15,0.00
2013-5-18,75,56,39,48,41,36,93,62,29,30.30,30.18,7,0,11,0.00
2013-5-19,62,53,43,53,49,42,95,86,71,30.28,30.12,10,1,21,0.05
2013-5-20,75,62,56,64,58,52,94,86,66,30.12,29.92,6,0,9,0.00
2013-5-21,87,70,56,68,62,54,97,79,47,29.95,29.74,10,1,21,0.49
2013-5-22,83,67,57,69,63,55,97,88,63,29.88,29.73,11,1,21,1.44
2013-5-23,77,70,62,68,63,59,91,79,64,29.79,29.69,13,1,23,0.05
2013-5-24,66,52,41,62,50,40,96,92,83,29.96,29.61,10,1,12,0.72
2013-5-25,43,41,38,42,39,37,95,94,92,29.95,29.87,9,1,18,1.28
2013-5-26,49,42,36,46,41,35,100,94,87,30.13,29.84,6,0,11,0.52
2013-5-27,72,51,33,48,40,32,97,71,31,30.19,30.07,6,1,12,0.01
2013-5-28,74,57,38,55,45,37,95,69,30,30.22,30.07,4,0,12,0.00
2013-5-29,75,64,56,69,60,52,96,90,72,30.07,29.91,5,0,15,0.51
2013-5-30,85,71,58,70,64,57,97,81,56,30.07,29.99,5,0,11,0.00
2013-5-31,90,75,60,71,65,59,97,73,44,30.08,29.90,7,0,12,0.00
2013-6-1,89,77,62,73,65,60,95,69,47,29.94,29.79,8,0,14,0.00
2013-6-2,88,74,65,71,66,63,96,78,53,29.79,29.63,8,1,16,2.02
2013-6-3,69,61,50,64,54,40,97,80,53,29.89,29.77,9,1,11,0.00
2013-6-4,72,56,41,50,44,38,92,68,41,30.11,29.90,6,1,19,0.00
2013-6-5,73,58,44,53,46,40,95,67,33,30.19,30.08,5,0,9,0.00
2013-6-6,72,60,48,55,49,44,94,71,44,30.14,30.01,8,0,14,0.17
2013-6-7,55,53,52,52,50,47,94,88,77,30.01,29.79,11,2,20,0.76
2013-6-8,64,58,52,60,55,50,96,92,82,30.01,29.70,4,0,20,0.43
2013-6-9,76,64,54,60,56,53,95,79,51,30.17,30.01,5,0,10,0.00
2013-6-10,69,59,51,60,55,49,96,86,58,30.18,29.86,12,1,19,0.21
2013-6-11,67,59,56,60,56,53,96,91,78,29.85,29.55,12,2,26,0.98
2013-6-12,70,58,52,57,54,49,96,86,57,29.84,29.58,10,0,14,0.34
2013-6-13,58,52,47,56,50,45,100,93,80,29.83,29.67,12,0,16,0.73
2013-6-14,76,61,50,60,52,46,95,76,39,29.84,29.67,5,0,11,0.00
2013-6-15,77,62,46,57,50,45,96,69,42,29.96,29.84,6,0,15,0.00
2013-6-16,75,60,48,60,53,45,93,80,52,29.94,29.70,7,0,16,0.03
2013-6-17,80,64,56,64,60,54,96,86,52,29.88,29.75,12,0,24,0.33
2013-6-18,63,58,50,61,56,48,96,92,82,29.96,29.87,4,0,11,0.00
2013-6-19,71,57,44,53,46,38,97,72,31,30.17,29.95,6,0,11,0.01
2013-6-20,79,60,41,56,47,39,95,68,33,30.26,30.16,4,0,9,0.00
2013-6-21,82,65,51,61,54,50,96,71,36,30.24,30.18,4,0,7,0.00
2013-6-22,84,68,55,68,60,52,95,78,51,30.19,30.05,5,0,6,0.00
2013-6-23,89,75,66,73,67,63,96,78,56,30.09,29.92,6,0,17,0.19
2013-6-24,88,71,63,74,67,62,97,88,60,30.00,29.87,6,0,17,0.26
2013-6-25,88,70,61,73,66,60,97,88,56,29.96,29.74,4,0,25,0.36
2013-6-26,77,69,64,70,66,63,97,93,74,29.80,29.72,7,0,10,0.32
2013-6-27,86,71,61,72,66,60,98,85,55,29.80,29.61,4,0,11,0.01
2013-6-28,79,69,63,70,65,60,96,86,67,29.62,29.41,9,1,24,0.64
2013-6-29,82,69,63,69,65,62,97,87,56,29.66,29.45,4,0,13,0.02
2013-6-30,84,70,61,73,65,60,97,86,61,29.88,29.66,5,0,10,0.02
2013-7-1,81,69,63,73,67,62,97,93,70,30.00,29.88,3,0,13,1.18
2013-7-2,85,72,66,75,69,64,97,91,67,30.12,29.98,4,0,11,1.13
2013-7-3,85,75,68,74,70,67,97,86,66,30.17,30.08,6,0,7,0.09
2013-7-4,89,78,69,75,71,68,97,80,59,30.18,30.04,4,0,11,0.00
2013-7-5,90,78,69,78,72,68,96,83,56,30.13,29.99,5,0,9,1.80
2013-7-6,84,74,64,73,69,62,97,86,58,30.08,29.99,7,0,9,0.00
2013-7-7,90,73,62,76,68,60,96,86,59,30.03,29.89,2,0,10,0.63
2013-7-8,85,72,67,73,69,65,97,90,64,30.02,29.89,5,0,11,0.08
2013-7-9,87,74,64,74,68,63,97,83,60,30.06,29.96,12,0,13,0.00
2013-7-10,83,74,69,73,69,67,96,85,69,29.96,29.74,9,0,16,0.66
2013-7-11,83,73,62,70,66,57,97,81,53,29.97,29.72,7,0,9,0.00
2013-7-12,82,69,57,68,60,55,96,76,47,30.15,29.97,3,0,7,0.00
2013-7-13,80,70,61,70,63,56,95,79,55,30.27,30.15,8,0,11,0.00
2013-7-14,88,75,66,76,70,65,96,85,60,30.30,30.19,3,0,6,0.00
2013-7-15,91,76,66,76,69,64,97,81,53,30.22,30.10,4,0,7,0.00
2013-7-16,91,76,63,74,68,62,96,78,49,30.21,30.12,7,0,11,0.00
2013-7-17,92,78,65,76,70,64,96,77,51,30.19,29.95,6,0,10,0.00
2013-7-18,91,80,70,77,72,68,97,79,56,30.01,29.90,7,0,12,0.00
2013-7-19,93,80,67,78,71,65,96,77,51,29.91,29.68,11,0,27,0.42
2013-7-20,84,71,63,72,67,61,97,88,63,29.83,29.67,9,0,16,0.01
2013-7-21,82,69,59,68,62,57,96,82,55,29.98,29.83,3,0,7,0.01
2013-7-22,86,69,60,73,65,59,96,87,52,30.00,29.80,4,0,11,0.30
2013-7-23,80,70,65,70,67,64,97,91,69,29.80,29.54,4,0,11,1.53
2013-7-24,77,66,52,66,60,48,97,84,58,30.01,29.58,7,0,14,0.00
2013-7-25,73,60,46,62,53,44,96,78,59,30.09,30.00,6,0,9,0.00
2013-7-26,76,62,55,63,57,53,95,84,57,30.06,29.98,3,0,9,0.00
2013-7-27,83,66,51,66,58,49,97,79,48,30.05,29.94,4,0,9,0.00
2013-7-28,78,67,60,69,63,59,95,87,65,29.97,29.90,4,0,15,0.08
2013-7-29,82,70,60,66,62,55,95,77,51,30.07,29.92,7,0,15,0.00
2013-7-30,78,65,52,63,57,51,96,78,53,30.14,30.05,7,0,7,0.00
2013-7-31,81,66,54,65,58,52,96,79,49,30.15,30.01,7,0,7,0.00
2013-8-1,76,63,55,65,59,53,96,88,66,30.02,29.80,13,1,21,0.14
2013-8-2,78,68,58,64,61,56,96,79,49,29.85,29.78,7,0,10,0.00
2013-8-3,78,65,55,64,57,53,96,79,48,29.85,29.78,7,0,15,0.05
2013-8-4,75,60,51,61,55,50,96,82,57,29.93,29.81,5,0,13,0.27
2013-8-5,74,60,48,56,50,46,96,74,41,30.05,29.93,5,0,13,0.00
2013-8-6,78,61,46,62,52,44,96,77,48,30.12,30.05,3,0,5,0.00
2013-8-7,79,68,57,62,58,55,91,73,50,30.13,30.00,10,1,20,0.00
2013-8-8,83,74,69,72,67,62,86,78,60,30.00,29.93,11,1,15,0.00
2013-8-9,78,73,70,72,69,67,94,88,80,29.93,29.74,9,0,18,0.10
2013-8-10,77,67,53,68,57,50,95,74,41,30.04,29.80,9,1,14,0.00
2013-8-11,76,61,48,60,53,46,96,78,49,30.10,29.99,3,0,7,0.00
2013-8-12,80,65,52,63,57,51,96,79,50,30.03,29.88,9,0,12,0.00
2013-8-13,71,64,59,67,62,57,96,94,86,29.89,29.65,3,0,10,1.42
2013-8-14,68,58,51,60,53,49,96,86,66,29.98,29.73,7,0,14,0.01
2013-8-15,71,57,45,57,51,44,97,83,56,30.11,29.98,7,0,12,0.01
2013-8-16,76,60,49,61,53,47,97,80,50,30.20,30.10,4,0,9,0.00
2013-8-17,78,62,48,63,55,47,97,80,47,30.29,30.20,4,0,6,0.00
2013-8-18,75,62,54,65,58,52,96,85,65,30.27,30.09,0,0,2,0.00
2013-8-19,79,65,54,65,59,53,96,83,59,30.09,29.96,4,0,9,0.00
2013-8-20,82,67,55,68,60,53,97,81,55,30.10,30.01,6,0,9,0.00
2013-8-21,83,69,57,68,62,56,97,80,50,30.16,30.00,4,0,10,0.00
2013-8-22,84,71,59,70,64,58,96,81,51,30.02,29.80,6,0,11,0.39
2013-8-23,74,64,52,64,57,47,97,80,42,30.16,29.85,7,0,11,0.00
2013-8-24,77,59,46,60,51,44,96,77,47,30.34,30.15,4,0,6,0.00
2013-8-25,78,62,47,63,54,45,96,78,49,30.38,30.14,5,0,10,0.01
2013-8-26,77,66,60,68,63,59,96,89,70,30.14,29.86,3,0,11,0.40
2013-8-27,81,70,64,71,66,62,97,90,69,29.90,29.82,1,0,6,0.03
2013-8-28,85,71,61,72,66,60,97,87,62,29.92,29.80,3,0,10,0.02
2013-8-29,79,68,59,68,63,58,96,85,64,30.03,29.90,9,0,12,0.00
2013-8-30,81,70,63,70,65,62,96,85,61,29.98,29.78,3,0,6,0.00
2013-8-31,78,70,65,73,68,63,97,94,81,29.81,29.72,4,0,5,0.57
2013-9-1,81,72,66,73,68,65,97,89,73,29.84,29.77,3,0,10,0.01
2013-9-2,81,70,62,73,67,61,97,91,70,29.79,29.64,11,0,21,1.49
2013-9-3,71,64,60,64,60,56,97,88,66,29.83,29.71,5,0,12,0.00
2013-9-4,74,64,56,61,57,54,96,80,57,29.92,29.82,9,0,12,0.00
2013-9-5,67,58,44,59,50,40,96,77,46,30.17,29.85,9,0,13,0.03
2013-9-6,66,50,38,50,42,36,96,77,45,30.28,30.11,4,0,10,0.00
2013-9-7,73,56,45,58,51,43,96,86,51,30.11,29.85,2,0,6,0.04
2013-9-8,66,56,43,57,50,40,100,83,55,30.13,29.79,9,0,14,0.04
2013-9-9,66,52,37,56,45,36,100,80,48,30.24,30.07,5,0,7,0.00
2013-9-10,78,66,54,71,62,52,97,90,76,30.09,29.96,5,0,9,0.33
2013-9-11,89,76,66,78,71,66,98,86,63,30.06,29.89,4,0,11,0.01
2013-9-12,82,69,64,74,67,64,97,92,72,29.89,29.62,4,0,10,0.78
2013-9-13,65,60,52,64,58,50,97,95,85,29.83,29.60,6,0,12,0.19
2013-9-14,59,53,47,54,50,46,96,91,74,30.09,29.83,3,0,9,0.06
2013-9-15,64,52,40,56,48,39,97,87,63,30.18,30.03,4,0,6,0.00
2013-9-16,60,51,39,55,48,37,97,89,64,30.30,30.01,5,0,12,0.10
2013-9-17,62,46,33,50,40,32,96,83,58,30.47,30.30,5,0,9,0.00
2013-9-18,68,49,37,55,44,35,97,84,51,30.35,30.15,3,0,6,0.00
2013-9-19,72,55,41,60,49,40,97,83,52,30.18,30.04,4,0,7,0.01
2013-9-20,78,61,45,65,54,44,97,80,48,30.09,29.92,6,0,11,0.00
2013-9-21,72,65,56,61,56,47,93,75,46,29.94,29.59,13,3,26,0.39
2013-9-22,64,56,48,61,50,42,96,83,63,29.89,29.54,19,1,26,0.54
2013-9-23,58,48,40,46,41,38,92,80,60,30.06,29.89,6,0,17,0.00
2013-9-24,64,48,39,52,42,37,98,83,58,30.06,29.88,7,0,11,0.00
2013-9-25,68,51,38,56,46,36,96,84,58,29.97,29.88,4,0,10,0.01
2013-9-26,64,51,42,51,47,40,96,85,60,30.14,29.97,3,0,6,0.00
2013-9-27,58,48,40,52,46,39,100,92,77,30.30,30.13,1,0,2,0.00
2013-9-28,70,53,40,58,49,39,97,86,60,30.37,30.23,5,0,9,0.01
2013-9-29,71,56,44,60,51,42,97,84,57,30.24,30.04,3,0,10,0.01
2013-9-30,69,55,43,58,50,41,97,84,56,30.10,29.96,6,0,7,0.00
2013-10-1,72,57,43,62,52,42,97,85,61,30.02,29.88,3,0,9,0.00
2013-10-2,72,60,48,63,55,47,97,85,67,29.99,29.86,9,1,15,0.01
2013-10-3,70,56,45,55,49,44,99,81,48,30.11,29.99,4,0,9,0.00
2013-10-4,60,54,49,58,52,45,96,94,87,30.08,30.02,3,0,3,0.77
2013-10-5,60,57,55,58,56,54,97,96,91,30.10,30.04,0,0,3,0.02
2013-10-6,59,57,55,56,54,52,97,88,80,30.10,30.01,12,2,17,0.54
2013-10-7,73,63,52,65,58,49,95,85,72,30.01,29.63,16,3,34,0.86
2013-10-8,62,51,40,49,42,38,94,75,47,30.38,29.92,9,1,15,0.00
2013-10-9,65,47,33,48,39,32,96,76,39,30.48,30.34,7,0,11,0.00
2013-10-10,63,49,36,51,42,34,95,78,51,30.34,30.16,3,0,6,0.00
2013-10-11,72,55,45,50,42,33,87,65,27,30.16,30.07,4,0,7,0.00
2013-10-12,70,54,40,54,47,38,94,77,54,30.33,30.14,15,1,16,0.00
2013-10-13,68,56,46,50,47,44,93,74,50,30.40,30.28,9,0,11,0.00
2013-10-14,66,53,42,54,48,41,96,84,61,30.34,30.22,5,0,7,0.00
2013-10-15,65,58,54,56,54,51,94,85,72,30.24,30.09,4,0,7,0.00
2013-10-16,64,57,48,54,50,46,98,79,61,30.09,29.82,11,1,18,0.00
2013-10-17,66,59,52,56,51,46,94,77,50,29.86,29.59,6,1,14,0.16
2013-10-18,61,54,47,59,46,36,95,76,46,29.92,29.53,16,2,18,0.28
2013-10-19,64,50,38,47,41,36,95,73,47,29.94,29.66,15,1,20,0.05
2013-10-20,55,47,38,47,39,35,90,73,53,30.02,29.65,11,2,20,0.01
2013-10-21,64,51,37,44,39,35,93,67,42,30.10,29.89,7,1,22,0.00
2013-10-22,55,49,34,48,41,32,92,76,55,29.88,29.72,12,1,24,0.15
2013-10-23,50,39,31,37,33,29,94,80,53,29.80,29.61,7,0,9,0.00
2013-10-24,45,39,30,34,32,28,93,74,55,29.90,29.68,15,2,18,0.00
2013-10-25,45,39,34,33,31,27,89,73,51,30.15,29.91,8,1,16,0.00
2013-10-26,48,43,38,34,30,27,83,62,45,30.13,29.81,12,2,24,0.00
2013-10-27,47,43,36,35,32,29,84,67,52,30.05,29.77,14,2,18,0.00
2013-10-28,52,41,28,37,31,22,86,69,46,30.35,30.04,15,1,21,0.00
2013-10-29,42,31,22,27,22,19,91,70,43,30.48,30.35,6,0,9,0.00
2013-10-30,46,36,29,39,31,22,94,83,72,30.35,30.20,4,0,6,0.05
2013-10-31,60,47,30,57,44,29,96,90,75,30.24,29.64,19,2,28,0.72
2013-11-1,66,61,51,60,53,42,90,75,52,29.66,29.35,17,4,37,1.22
2013-11-2,59,47,39,45,41,34,95,80,55,29.80,29.60,5,0,12,0.00
2013-11-3,40,34,26,34,21,11,84,62,41,30.47,29.81,10,1,15,0.00
2013-11-4,39,28,19,24,19,16,89,69,43,30.68,30.48,7,0,11,0.00
2013-11-5,49,38,26,35,28,17,89,68,50,30.68,30.45,11,1,14,0.00
2013-11-6,58,49,39,48,41,34,87,74,57,30.45,29.92,11,2,21,0.00
2013-11-7,58,48,34,52,42,23,94,78,54,29.92,29.73,13,3,20,0.61
2013-11-8,42,34,28,33,26,22,91,71,50,30.13,29.86,17,2,26,0.00
2013-11-9,41,35,27,32,26,21,80,69,56,30.23,29.92,7,1,16,0.00
2013-11-10,46,41,36,39,34,28,88,77,61,29.93,29.74,17,3,27,0.08
2013-11-11,44,40,34,33,29,26,74,64,52,30.13,29.88,15,2,20,0.00
2013-11-12,42,29,23,34,20,15,92,70,57,30.26,29.90,12,2,24,0.03
2013-11-13,33,25,17,20,14,11,80,63,42,30.36,30.15,10,1,14,0.00
2013-11-14,45,35,29,26,21,16,78,59,44,30.15,30.07,16,1,19,0.00
2013-11-15,54,39,29,28,22,20,75,55,27,30.19,30.09,6,0,9,0.00
2013-11-16,56,43,34,34,30,25,84,62,40,30.30,30.17,4,0,7,0.00
2013-11-17,60,50,33,54,45,29,91,83,78,30.24,29.67,23,5,32,0.13
2013-11-18,62,53,39,57,43,29,92,68,52,29.71,29.43,25,5,38,0.44
2013-11-19,39,33,27,30,22,16,80,63,52,30.36,29.72,15,3,21,0.00
2013-11-20,35,26,20,20,17,14,82,69,50,30.64,30.36,5,0,10,0.00
2013-11-21,44,30,16,32,21,13,89,70,32,30.65,30.35,6,0,11,0.00
2013-11-22,46,40,35,43,38,31,95,93,85,30.35,29.85,16,1,17,0.23
2013-11-23,44,33,23,40,22,9,86,66,51,30.00,29.80,15,3,26,0.00
2013-11-24,23,17,12,16,4,0,87,57,45,30.29,29.87,15,3,26,0.00
2013-11-25,30,19,5,17,8,0,83,63,44,30.44,30.20,7,0,12,0.00
2013-11-26,41,32,26,39,27,12,94,82,47,30.29,29.92,14,1,18,0.50
2013-11-27,53,39,30,49,37,29,95,92,82,29.92,29.36,18,3,33,0.89
2013-11-28,30,22,14,28,14,7,94,70,45,30.45,29.56,14,3,19,0.00
2013-11-29,26,18,9,16,12,6,92,78,51,30.76,30.45,5,0,10,0.00
2013-11-30,31,19,4,24,8,1,98,67,43,30.81,30.37,16,2,22,0.00
2013-12-1,42,34,30,31,29,24,88,80,63,30.37,30.01,17,1,20,0.02
2013-12-2,38,34,31,33,30,28,93,87,79,30.01,29.89,1,0,4,0.01
2013-12-3,40,33,28,35,30,26,95,89,81,29.99,29.90,3,0,4,0.00
2013-12-4,40,31,25,31,26,23,94,84,58,30.17,29.99,3,0,6,0.00
2013-12-5,60,50,29,53,44,27,94,83,77,30.14,29.83,20,3,29,0.00
2013-12-6,57,40,30,52,37,28,95,89,82,30.16,29.84,11,1,17,0.38
2013-12-7,34,30,23,28,22,14,94,75,56,30.47,30.12,10,1,16,0.04
2013-12-8,27,25,21,18,14,12,76,64,54,30.59,30.43,5,0,7,0.00
2013-12-9,42,32,24,36,26,14,91,78,61,30.43,29.88,11,2,23,0.08
2013-12-10,34,28,21,29,20,11,88,71,57,29.99,29.82,18,2,22,0.00
2013-12-11,27,23,20,16,14,8,80,67,52,30.18,29.99,15,3,19,0.00
2013-12-12,20,16,12,14,5,-1,78,59,43,30.31,30.02,9,1,17,0.00
2013-12-13,22,17,5,15,9,-1,87,72,58,30.43,29.96,12,2,24,0.00
2013-12-14,17,9,3,14,3,-2,89,75,61,30.60,30.04,21,2,33,0.00
2013-12-15,25,23,17,23,20,14,92,87,80,30.04,29.53,20,3,39,0.00
2013-12-16,23,17,7,19,8,2,84,68,53,30.23,29.73,17,3,25,0.00
2013-12-17,17,8,-3,13,5,-7,92,85,78,30.26,30.00,6,0,10,0.00
2013-12-18,28,20,12,21,16,10,99,84,71,30.07,29.97,5,0,16,0.00
2013-12-19,38,33,27,29,23,18,84,66,51,30.09,29.95,12,1,18,0.17
2013-12-20,54,40,34,42,34,28,95,79,52,30.07,29.87,10,1,19,0.16
2013-12-21,59,47,38,52,44,36,96,90,70,29.90,29.81,15,1,23,0.51
2013-12-22,67,48,32,59,44,31,97,86,63,29.91,29.62,15,2,30,0.09
2013-12-23,50,41,31,47,38,25,96,92,76,30.15,29.88,11,1,18,0.26
2013-12-24,31,24,16,25,16,5,80,69,56,30.29,30.11,14,2,18,0.00
2013-12-25,21,13,5,8,3,-1,77,65,50,30.56,30.29,15,1,18,0.00
2013-12-26,29,26,21,26,20,6,89,78,50,30.40,30.09,16,3,23,0.00
2013-12-27,30,27,23,23,20,16,82,74,65,30.28,30.19,12,2,17,0.01
2013-12-28,41,33,24,31,26,20,92,76,57,30.21,30.03,10,1,15,0.00
2013-12-29,40,33,28,35,30,26,100,90,77,30.03,29.57,4,0,7,0.50
2013-12-30,35,24,9,33,18,4,95,76,59,30.21,29.61,15,3,20,0.08
2013-12-31,20,13,6,15,7,2,86,77,62,30.19,30.02,30,2,30,0.00
2014-1-1,19,15,10,11,8,4,83,73,63,30.38,30.19,10,1,19,0.00
2014-1-2,14,3,-5,10,-1,-9,92,83,81,30.35,29.92,9,1,11,0.00